sensor_id;sensor_type;location;lat;lon;timestamp;temperature;humidity
3678;DHT22;1855;50.934;6.958;2023-07-31T00:02:15;16.40;99.90
3678;DHT22;1855;50.934;6.958;2023-07-31T00:04:42;16.40;99.90
3678;DHT22;1855;50.934;6.958;2023-07-31T00:07:08;16.40;99.90
3678;DHT22;1855;50.934;6.958;2023-07-31T00:09:35;16.40;99.90
3678;DHT22;1855;50.934;6.958;2023-07-31T00:12:02;16.40;99.90
3678;DHT22;1855;50.934;6.958;2023-07-31T00:14:29;16.50;99.90
3678;DHT22;1855;50.934;6.958;2023-07-31T00:16:55;16.50;99.90
3678;DHT22;1855;50.934;6.958;2023-07-31T00:19:24;16.50;99.90
3678;DHT22;1855;50.934;6.958;2023-07-31T00:21:50;16.50;99.90
3678;DHT22;1855;50.934;6.958;2023-07-31T00:24:17;16.50;99.90
3678;DHT22;1855;50.934;6.958;2023-07-31T00:26:44;16.50;99.90
3678;DHT22;1855;50.934;6.958;2023-07-31T00:29:10;16.50;99.90
3678;DHT22;1855;50.934;6.958;2023-07-31T00:31:37;16.60;99.90
3678;DHT22;1855;50.934;6.958;2023-07-31T00:34:04;16.60;99.90
3678;DHT22;1855;50.934;6.958;2023-07-31T00:36:32;16.50;99.90
3678;DHT22;1855;50.934;6.958;2023-07-31T00:38:59;16.60;99.90
3678;DHT22;1855;50.934;6.958;2023-07-31T00:41:25;16.60;99.90
3678;DHT22;1855;50.934;6.958;2023-07-31T00:43:52;16.60;99.90
3678;DHT22;1855;50.934;6.958;2023-07-31T00:46:19;16.70;99.90
3678;DHT22;1855;50.934;6.958;2023-07-31T00:48:46;16.70;99.90
3678;DHT22;1855;50.934;6.958;2023-07-31T00:51:14;16.80;99.90
3678;DHT22;1855;50.934;6.958;2023-07-31T00:53:42;16.80;99.90
3678;DHT22;1855;50.934;6.958;2023-07-31T00:56:10;16.80;99.90
3678;DHT22;1855;50.934;6.958;2023-07-31T00:58:37;16.90;99.90
3678;DHT22;1855;50.934;6.958;2023-07-31T01:01:04;16.90;99.90
3678;DHT22;1855;50.934;6.958;2023-07-31T01:03:30;16.90;99.90
3678;DHT22;1855;50.934;6.958;2023-07-31T01:06:09;17.00;99.90
3678;DHT22;1855;50.934;6.958;2023-07-31T01:08:47;16.90;99.90
3678;DHT22;1855;50.934;6.958;2023-07-31T01:11:19;16.90;99.90
3678;DHT22;1855;50.934;6.958;2023-07-31T01:13:48;16.90;99.90
3678;DHT22;1855;50.934;6.958;2023-07-31T01:16:15;17.00;99.90
3678;DHT22;1855;50.934;6.958;2023-07-31T01:18:42;17.00;99.90
3678;DHT22;1855;50.934;6.958;2023-07-31T01:21:23;17.00;99.90
3678;DHT22;1855;50.934;6.958;2023-07-31T01:24:15;17.00;99.90
3678;DHT22;1855;50.934;6.958;2023-07-31T01:26:47;17.00;99.90
3678;DHT22;1855;50.934;6.958;2023-07-31T01:29:20;17.00;99.90
3678;DHT22;1855;50.934;6.958;2023-07-31T01:31:53;17.00;99.90
3678;DHT22;1855;50.934;6.958;2023-07-31T01:34:22;17.00;99.90
3678;DHT22;1855;50.934;6.958;2023-07-31T01:36:48;17.10;99.90
3678;DHT22;1855;50.934;6.958;2023-07-31T01:39:15;17.10;99.90
3678;DHT22;1855;50.934;6.958;2023-07-31T01:41:42;17.10;99.90
3678;DHT22;1855;50.934;6.958;2023-07-31T01:44:10;17.10;99.90
3678;DHT22;1855;50.934;6.958;2023-07-31T01:46:37;17.10;99.90
3678;DHT22;1855;50.934;6.958;2023-07-31T01:49:05;17.10;99.90
3678;DHT22;1855;50.934;6.958;2023-07-31T01:51:31;17.10;99.90
3678;DHT22;1855;50.934;6.958;2023-07-31T01:53:59;17.10;99.90
3678;DHT22;1855;50.934;6.958;2023-07-31T01:56:26;17.10;99.90
3678;DHT22;1855;50.934;6.958;2023-07-31T01:58:53;17.20;99.90
3678;DHT22;1855;50.934;6.958;2023-07-31T02:01:21;17.20;99.90
3678;DHT22;1855;50.934;6.958;2023-07-31T02:03:48;17.20;99.90
3678;DHT22;1855;50.934;6.958;2023-07-31T02:06:14;17.20;99.90
3678;DHT22;1855;50.934;6.958;2023-07-31T02:08:41;17.30;99.90
3678;DHT22;1855;50.934;6.958;2023-07-31T02:11:08;17.20;99.90
3678;DHT22;1855;50.934;6.958;2023-07-31T02:13:35;17.20;99.90
3678;DHT22;1855;50.934;6.958;2023-07-31T02:16:01;17.30;99.90
3678;DHT22;1855;50.934;6.958;2023-07-31T02:18:29;17.30;99.90
3678;DHT22;1855;50.934;6.958;2023-07-31T02:20:56;17.30;99.90
3678;DHT22;1855;50.934;6.958;2023-07-31T02:23:23;17.30;99.90
3678;DHT22;1855;50.934;6.958;2023-07-31T02:25:49;17.30;99.90
3678;DHT22;1855;50.934;6.958;2023-07-31T02:28:16;17.30;99.90
3678;DHT22;1855;50.934;6.958;2023-07-31T02:30:44;17.30;99.90
3678;DHT22;1855;50.934;6.958;2023-07-31T02:33:12;17.30;99.90
3678;DHT22;1855;50.934;6.958;2023-07-31T02:35:40;17.30;99.90
3678;DHT22;1855;50.934;6.958;2023-07-31T02:38:06;17.30;99.90
3678;DHT22;1855;50.934;6.958;2023-07-31T02:40:33;17.40;99.90
3678;DHT22;1855;50.934;6.958;2023-07-31T02:43:00;17.40;99.90
3678;DHT22;1855;50.934;6.958;2023-07-31T02:45:26;17.40;99.90
3678;DHT22;1855;50.934;6.958;2023-07-31T02:47:53;17.40;99.90
3678;DHT22;1855;50.934;6.958;2023-07-31T02:50:20;17.40;99.90
3678;DHT22;1855;50.934;6.958;2023-07-31T02:52:48;17.40;99.90
3678;DHT22;1855;50.934;6.958;2023-07-31T02:55:15;17.50;99.90
3678;DHT22;1855;50.934;6.958;2023-07-31T02:57:41;17.50;99.90
3678;DHT22;1855;50.934;6.958;2023-07-31T03:00:08;17.40;99.90
3678;DHT22;1855;50.934;6.958;2023-07-31T03:02:35;17.50;99.90
3678;DHT22;1855;50.934;6.958;2023-07-31T03:05:02;17.40;99.90
3678;DHT22;1855;50.934;6.958;2023-07-31T03:07:28;17.50;99.90
3678;DHT22;1855;50.934;6.958;2023-07-31T03:09:57;17.50;99.90
3678;DHT22;1855;50.934;6.958;2023-07-31T03:12:24;17.50;99.90
3678;DHT22;1855;50.934;6.958;2023-07-31T03:14:50;17.50;99.90
3678;DHT22;1855;50.934;6.958;2023-07-31T03:17:17;17.50;99.90
3678;DHT22;1855;50.934;6.958;2023-07-31T03:19:44;17.50;99.90
3678;DHT22;1855;50.934;6.958;2023-07-31T03:22:10;17.50;99.90
3678;DHT22;1855;50.934;6.958;2023-07-31T03:24:37;17.50;99.90
3678;DHT22;1855;50.934;6.958;2023-07-31T03:27:06;17.50;99.90
3678;DHT22;1855;50.934;6.958;2023-07-31T03:29:33;17.50;99.90
3678;DHT22;1855;50.934;6.958;2023-07-31T03:31:59;17.50;99.90
3678;DHT22;1855;50.934;6.958;2023-07-31T03:34:26;17.50;99.90
3678;DHT22;1855;50.934;6.958;2023-07-31T03:36:53;17.60;99.90
3678;DHT22;1855;50.934;6.958;2023-07-31T03:39:20;17.60;99.80
3678;DHT22;1855;50.934;6.958;2023-07-31T03:41:46;17.70;99.80
3678;DHT22;1855;50.934;6.958;2023-07-31T03:44:14;17.70;99.90
3678;DHT22;1855;50.934;6.958;2023-07-31T03:46:41;17.60;99.90
3678;DHT22;1855;50.934;6.958;2023-07-31T03:49:08;17.50;99.90
3678;DHT22;1855;50.934;6.958;2023-07-31T03:51:35;17.40;99.90
3678;DHT22;1855;50.934;6.958;2023-07-31T03:54:01;17.30;99.90
3678;DHT22;1855;50.934;6.958;2023-07-31T03:56:28;17.30;99.90
3678;DHT22;1855;50.934;6.958;2023-07-31T03:58:55;17.30;99.90
3678;DHT22;1855;50.934;6.958;2023-07-31T04:01:23;17.30;99.90
3678;DHT22;1855;50.934;6.958;2023-07-31T04:03:50;17.40;99.90
3678;DHT22;1855;50.934;6.958;2023-07-31T04:06:16;17.30;99.90
3678;DHT22;1855;50.934;6.958;2023-07-31T04:08:44;17.30;99.90
3678;DHT22;1855;50.934;6.958;2023-07-31T04:11:11;17.30;99.90
3678;DHT22;1855;50.934;6.958;2023-07-31T04:13:38;17.20;99.90
3678;DHT22;1855;50.934;6.958;2023-07-31T04:16:05;17.20;99.90
3678;DHT22;1855;50.934;6.958;2023-07-31T04:18:33;17.20;99.90
3678;DHT22;1855;50.934;6.958;2023-07-31T04:20:59;17.20;99.90
3678;DHT22;1855;50.934;6.958;2023-07-31T04:23:27;17.20;99.90
3678;DHT22;1855;50.934;6.958;2023-07-31T04:25:54;17.20;99.90
3678;DHT22;1855;50.934;6.958;2023-07-31T04:28:21;17.30;99.90
3678;DHT22;1855;50.934;6.958;2023-07-31T04:30:48;17.30;99.90
3678;DHT22;1855;50.934;6.958;2023-07-31T04:33:14;17.30;99.90
3678;DHT22;1855;50.934;6.958;2023-07-31T04:35:49;17.30;99.90
3678;DHT22;1855;50.934;6.958;2023-07-31T04:38:17;17.30;99.90
3678;DHT22;1855;50.934;6.958;2023-07-31T04:40:46;17.40;99.90
3678;DHT22;1855;50.934;6.958;2023-07-31T04:43:13;17.40;99.90
3678;DHT22;1855;50.934;6.958;2023-07-31T04:45:44;17.40;99.90
3678;DHT22;1855;50.934;6.958;2023-07-31T04:48:12;17.50;99.90
3678;DHT22;1855;50.934;6.958;2023-07-31T04:50:39;17.50;99.90
3678;DHT22;1855;50.934;6.958;2023-07-31T04:53:07;17.60;99.90
3678;DHT22;1855;50.934;6.958;2023-07-31T04:55:33;17.60;99.90
3678;DHT22;1855;50.934;6.958;2023-07-31T04:58:00;17.60;99.90
3678;DHT22;1855;50.934;6.958;2023-07-31T05:00:27;17.70;99.90
3678;DHT22;1855;50.934;6.958;2023-07-31T05:02:53;17.70;99.90
3678;DHT22;1855;50.934;6.958;2023-07-31T05:05:20;17.70;99.90
3678;DHT22;1855;50.934;6.958;2023-07-31T05:07:47;17.80;99.50
3678;DHT22;1855;50.934;6.958;2023-07-31T05:10:15;17.90;99.20
3678;DHT22;1855;50.934;6.958;2023-07-31T05:12:42;17.90;99.20
3678;DHT22;1855;50.934;6.958;2023-07-31T05:15:09;17.90;99.00
3678;DHT22;1855;50.934;6.958;2023-07-31T05:17:36;18.00;98.50
3678;DHT22;1855;50.934;6.958;2023-07-31T05:20:03;18.00;98.30
3678;DHT22;1855;50.934;6.958;2023-07-31T05:22:30;18.10;98.30
3678;DHT22;1855;50.934;6.958;2023-07-31T05:24:57;18.00;98.50
3678;DHT22;1855;50.934;6.958;2023-07-31T05:27:25;18.10;98.20
3678;DHT22;1855;50.934;6.958;2023-07-31T05:29:51;18.10;98.00
3678;DHT22;1855;50.934;6.958;2023-07-31T05:32:18;18.20;98.00
3678;DHT22;1855;50.934;6.958;2023-07-31T05:34:45;18.20;97.50
3678;DHT22;1855;50.934;6.958;2023-07-31T05:37:12;18.20;97.30
3678;DHT22;1855;50.934;6.958;2023-07-31T05:39:38;18.30;97.40
3678;DHT22;1855;50.934;6.958;2023-07-31T05:42:05;18.30;97.30
3678;DHT22;1855;50.934;6.958;2023-07-31T05:44:33;18.30;97.40
3678;DHT22;1855;50.934;6.958;2023-07-31T05:47:00;18.30;97.20
3678;DHT22;1855;50.934;6.958;2023-07-31T05:49:27;18.30;97.30
3678;DHT22;1855;50.934;6.958;2023-07-31T05:51:53;18.30;97.20
3678;DHT22;1855;50.934;6.958;2023-07-31T05:54:20;18.20;97.40
3678;DHT22;1855;50.934;6.958;2023-07-31T05:56:47;18.20;97.40
3678;DHT22;1855;50.934;6.958;2023-07-31T05:59:13;18.20;97.20
3678;DHT22;1855;50.934;6.958;2023-07-31T06:01:42;18.20;97.40
3678;DHT22;1855;50.934;6.958;2023-07-31T06:04:08;18.20;97.70
3678;DHT22;1855;50.934;6.958;2023-07-31T06:06:35;18.10;98.50
3678;DHT22;1855;50.934;6.958;2023-07-31T06:09:02;18.10;99.10
3678;DHT22;1855;50.934;6.958;2023-07-31T06:11:29;18.00;99.90
3678;DHT22;1855;50.934;6.958;2023-07-31T06:13:56;17.90;99.90
3678;DHT22;1855;50.934;6.958;2023-07-31T06:16:22;17.80;99.90
3678;DHT22;1855;50.934;6.958;2023-07-31T06:18:50;17.70;99.90
3678;DHT22;1855;50.934;6.958;2023-07-31T06:21:17;17.60;99.90
3678;DHT22;1855;50.934;6.958;2023-07-31T06:23:44;17.50;99.90
3678;DHT22;1855;50.934;6.958;2023-07-31T06:26:11;17.50;99.90
3678;DHT22;1855;50.934;6.958;2023-07-31T06:28:37;17.40;99.90
3678;DHT22;1855;50.934;6.958;2023-07-31T06:31:04;17.40;99.90
3678;DHT22;1855;50.934;6.958;2023-07-31T06:33:31;17.40;99.90
3678;DHT22;1855;50.934;6.958;2023-07-31T06:35:59;17.40;99.90
3678;DHT22;1855;50.934;6.958;2023-07-31T06:38:26;17.40;99.90
3678;DHT22;1855;50.934;6.958;2023-07-31T06:40:53;17.40;99.90
3678;DHT22;1855;50.934;6.958;2023-07-31T06:43:20;17.40;99.90
3678;DHT22;1855;50.934;6.958;2023-07-31T06:45:46;17.40;99.90
3678;DHT22;1855;50.934;6.958;2023-07-31T06:48:16;17.40;99.90
3678;DHT22;1855;50.934;6.958;2023-07-31T06:50:42;17.40;99.90
3678;DHT22;1855;50.934;6.958;2023-07-31T06:53:10;17.50;99.90
3678;DHT22;1855;50.934;6.958;2023-07-31T06:55:37;17.60;99.90
3678;DHT22;1855;50.934;6.958;2023-07-31T06:58:04;17.60;99.90
3678;DHT22;1855;50.934;6.958;2023-07-31T07:00:31;17.60;99.90
3678;DHT22;1855;50.934;6.958;2023-07-31T07:02:58;17.70;99.90
3678;DHT22;1855;50.934;6.958;2023-07-31T07:05:24;17.80;99.90
3678;DHT22;1855;50.934;6.958;2023-07-31T07:07:51;17.90;99.90
3678;DHT22;1855;50.934;6.958;2023-07-31T07:10:19;17.90;99.90
3678;DHT22;1855;50.934;6.958;2023-07-31T07:12:46;18.00;99.90
3678;DHT22;1855;50.934;6.958;2023-07-31T07:15:13;18.00;99.90
3678;DHT22;1855;50.934;6.958;2023-07-31T07:17:40;18.10;99.90
3678;DHT22;1855;50.934;6.958;2023-07-31T07:20:08;18.10;99.90
3678;DHT22;1855;50.934;6.958;2023-07-31T07:22:35;18.10;99.90
3678;DHT22;1855;50.934;6.958;2023-07-31T07:25:01;18.10;99.90
3678;DHT22;1855;50.934;6.958;2023-07-31T07:27:29;18.20;99.90
3678;DHT22;1855;50.934;6.958;2023-07-31T07:29:56;18.20;99.90
3678;DHT22;1855;50.934;6.958;2023-07-31T07:32:23;18.10;99.90
3678;DHT22;1855;50.934;6.958;2023-07-31T07:34:50;18.10;99.90
3678;DHT22;1855;50.934;6.958;2023-07-31T07:37:17;18.10;99.90
3678;DHT22;1855;50.934;6.958;2023-07-31T07:39:44;18.10;99.90
3678;DHT22;1855;50.934;6.958;2023-07-31T07:42:10;18.00;99.90
3678;DHT22;1855;50.934;6.958;2023-07-31T07:44:38;18.00;99.90
3678;DHT22;1855;50.934;6.958;2023-07-31T07:47:05;17.90;99.90
3678;DHT22;1855;50.934;6.958;2023-07-31T07:49:33;17.90;99.90
3678;DHT22;1855;50.934;6.958;2023-07-31T07:51:59;17.90;99.90
3678;DHT22;1855;50.934;6.958;2023-07-31T07:54:26;17.80;99.90
3678;DHT22;1855;50.934;6.958;2023-07-31T07:56:53;17.70;99.90
3678;DHT22;1855;50.934;6.958;2023-07-31T07:59:20;17.70;99.90
3678;DHT22;1855;50.934;6.958;2023-07-31T08:01:48;17.60;99.90
3678;DHT22;1855;50.934;6.958;2023-07-31T08:04:15;17.60;99.90
3678;DHT22;1855;50.934;6.958;2023-07-31T08:06:41;17.50;99.90
3678;DHT22;1855;50.934;6.958;2023-07-31T08:09:08;17.50;99.90
3678;DHT22;1855;50.934;6.958;2023-07-31T08:11:35;17.40;99.90
3678;DHT22;1855;50.934;6.958;2023-07-31T08:14:02;17.30;99.90
3678;DHT22;1855;50.934;6.958;2023-07-31T08:16:29;17.20;99.90
3678;DHT22;1855;50.934;6.958;2023-07-31T08:18:57;17.10;99.90
3678;DHT22;1855;50.934;6.958;2023-07-31T08:21:23;17.00;99.90
3678;DHT22;1855;50.934;6.958;2023-07-31T08:23:50;16.90;99.90
3678;DHT22;1855;50.934;6.958;2023-07-31T08:26:17;16.90;99.90
3678;DHT22;1855;50.934;6.958;2023-07-31T08:28:44;16.90;99.90
3678;DHT22;1855;50.934;6.958;2023-07-31T08:31:11;17.00;99.90
3678;DHT22;1855;50.934;6.958;2023-07-31T08:33:38;17.00;99.90
3678;DHT22;1855;50.934;6.958;2023-07-31T08:36:06;17.10;99.90
3678;DHT22;1855;50.934;6.958;2023-07-31T08:38:33;17.10;99.90
3678;DHT22;1855;50.934;6.958;2023-07-31T08:41:00;17.20;99.90
3678;DHT22;1855;50.934;6.958;2023-07-31T08:43:29;17.20;99.90
3678;DHT22;1855;50.934;6.958;2023-07-31T08:45:56;17.20;99.90
3678;DHT22;1855;50.934;6.958;2023-07-31T08:48:24;17.20;99.90
3678;DHT22;1855;50.934;6.958;2023-07-31T08:50:51;17.20;99.90
3678;DHT22;1855;50.934;6.958;2023-07-31T08:53:19;17.20;99.90
3678;DHT22;1855;50.934;6.958;2023-07-31T08:55:47;17.20;99.90
3678;DHT22;1855;50.934;6.958;2023-07-31T08:58:15;17.20;99.90
3678;DHT22;1855;50.934;6.958;2023-07-31T09:00:43;17.20;99.90
3678;DHT22;1855;50.934;6.958;2023-07-31T09:03:13;17.30;99.90
3678;DHT22;1855;50.934;6.958;2023-07-31T09:05:42;17.30;99.90
3678;DHT22;1855;50.934;6.958;2023-07-31T09:08:10;17.30;99.90
3678;DHT22;1855;50.934;6.958;2023-07-31T09:10:41;17.30;99.90
3678;DHT22;1855;50.934;6.958;2023-07-31T09:13:08;17.40;99.90
3678;DHT22;1855;50.934;6.958;2023-07-31T09:15:36;17.50;99.90
3678;DHT22;1855;50.934;6.958;2023-07-31T09:18:04;17.60;99.90
3678;DHT22;1855;50.934;6.958;2023-07-31T09:20:31;17.60;99.90
3678;DHT22;1855;50.934;6.958;2023-07-31T09:23:05;17.70;99.90
3678;DHT22;1855;50.934;6.958;2023-07-31T09:25:32;17.60;99.90
3678;DHT22;1855;50.934;6.958;2023-07-31T09:28:02;17.60;99.90
3678;DHT22;1855;50.934;6.958;2023-07-31T09:30:29;17.40;99.90
3678;DHT22;1855;50.934;6.958;2023-07-31T09:33:06;17.40;99.90
3678;DHT22;1855;50.934;6.958;2023-07-31T09:35:34;17.50;99.90
3678;DHT22;1855;50.934;6.958;2023-07-31T09:38:04;17.50;99.90
3678;DHT22;1855;50.934;6.958;2023-07-31T09:40:33;17.50;99.90
3678;DHT22;1855;50.934;6.958;2023-07-31T09:43:03;17.60;99.90
3678;DHT22;1855;50.934;6.958;2023-07-31T09:45:37;17.80;99.90
3678;DHT22;1855;50.934;6.958;2023-07-31T09:48:07;17.90;99.90
3678;DHT22;1855;50.934;6.958;2023-07-31T09:50:36;18.00;99.90
3678;DHT22;1855;50.934;6.958;2023-07-31T09:53:05;18.10;99.90
3678;DHT22;1855;50.934;6.958;2023-07-31T09:55:32;18.20;99.90
3678;DHT22;1855;50.934;6.958;2023-07-31T09:58:02;18.30;99.90
3678;DHT22;1855;50.934;6.958;2023-07-31T10:00:30;18.40;99.90
3678;DHT22;1855;50.934;6.958;2023-07-31T10:02:59;18.60;99.90
3678;DHT22;1855;50.934;6.958;2023-07-31T10:05:29;18.70;99.90
3678;DHT22;1855;50.934;6.958;2023-07-31T10:07:57;18.70;99.90
3678;DHT22;1855;50.934;6.958;2023-07-31T10:10:25;18.90;99.90
3678;DHT22;1855;50.934;6.958;2023-07-31T10:12:54;19.00;99.90
3678;DHT22;1855;50.934;6.958;2023-07-31T10:15:24;19.10;99.90
3678;DHT22;1855;50.934;6.958;2023-07-31T10:17:52;19.20;99.90
3678;DHT22;1855;50.934;6.958;2023-07-31T10:20:20;19.20;99.90
3678;DHT22;1855;50.934;6.958;2023-07-31T10:22:48;19.30;99.90
3678;DHT22;1855;50.934;6.958;2023-07-31T10:25:15;19.30;99.40
3678;DHT22;1855;50.934;6.958;2023-07-31T10:27:42;19.30;98.70
3678;DHT22;1855;50.934;6.958;2023-07-31T10:30:12;19.30;98.70
3678;DHT22;1855;50.934;6.958;2023-07-31T10:32:43;19.30;97.80
3678;DHT22;1855;50.934;6.958;2023-07-31T10:35:11;19.40;96.90
3678;DHT22;1855;50.934;6.958;2023-07-31T10:37:39;19.40;96.30
3678;DHT22;1855;50.934;6.958;2023-07-31T10:40:10;19.50;96.40
3678;DHT22;1855;50.934;6.958;2023-07-31T10:42:38;19.50;95.70
3678;DHT22;1855;50.934;6.958;2023-07-31T10:45:11;19.60;95.70
3678;DHT22;1855;50.934;6.958;2023-07-31T10:47:38;19.50;94.70
3678;DHT22;1855;50.934;6.958;2023-07-31T10:50:15;19.50;95.40
3678;DHT22;1855;50.934;6.958;2023-07-31T10:52:46;19.50;95.70
3678;DHT22;1855;50.934;6.958;2023-07-31T10:55:15;19.50;95.80
3678;DHT22;1855;50.934;6.958;2023-07-31T10:57:44;19.50;95.50
3678;DHT22;1855;50.934;6.958;2023-07-31T11:00:19;19.60;95.10
3678;DHT22;1855;50.934;6.958;2023-07-31T11:02:56;19.60;94.60
3678;DHT22;1855;50.934;6.958;2023-07-31T11:05:44;19.70;96.20
3678;DHT22;1855;50.934;6.958;2023-07-31T11:08:13;19.80;97.10
3678;DHT22;1855;50.934;6.958;2023-07-31T11:10:40;19.60;98.50
3678;DHT22;1855;50.934;6.958;2023-07-31T11:13:06;19.30;99.90
3678;DHT22;1855;50.934;6.958;2023-07-31T11:15:33;18.90;99.90
3678;DHT22;1855;50.934;6.958;2023-07-31T11:18:00;18.60;99.90
3678;DHT22;1855;50.934;6.958;2023-07-31T11:20:31;18.50;99.90
3678;DHT22;1855;50.934;6.958;2023-07-31T11:22:59;18.40;99.90
3678;DHT22;1855;50.934;6.958;2023-07-31T11:25:28;18.30;99.90
3678;DHT22;1855;50.934;6.958;2023-07-31T11:27:54;18.30;99.90
3678;DHT22;1855;50.934;6.958;2023-07-31T11:30:21;18.40;99.90
3678;DHT22;1855;50.934;6.958;2023-07-31T11:32:49;18.50;99.90
3678;DHT22;1855;50.934;6.958;2023-07-31T11:35:16;18.70;99.90
3678;DHT22;1855;50.934;6.958;2023-07-31T11:37:44;18.90;99.90
3678;DHT22;1855;50.934;6.958;2023-07-31T11:40:11;19.10;99.90
3678;DHT22;1855;50.934;6.958;2023-07-31T11:42:38;19.40;99.40
3678;DHT22;1855;50.934;6.958;2023-07-31T11:45:06;19.60;97.80
3678;DHT22;1855;50.934;6.958;2023-07-31T11:47:33;19.90;96.90
3678;DHT22;1855;50.934;6.958;2023-07-31T11:50:01;20.10;95.00
3678;DHT22;1855;50.934;6.958;2023-07-31T11:52:30;20.40;94.80
3678;DHT22;1855;50.934;6.958;2023-07-31T11:54:59;20.60;92.80
3678;DHT22;1855;50.934;6.958;2023-07-31T11:57:27;20.70;92.30
3678;DHT22;1855;50.934;6.958;2023-07-31T11:59:55;20.80;92.70
3678;DHT22;1855;50.934;6.958;2023-07-31T12:02:22;20.70;91.80
3678;DHT22;1855;50.934;6.958;2023-07-31T12:04:49;20.60;91.80
3678;DHT22;1855;50.934;6.958;2023-07-31T12:07:16;20.50;92.00
3678;DHT22;1855;50.934;6.958;2023-07-31T12:09:51;20.40;92.60
3678;DHT22;1855;50.934;6.958;2023-07-31T12:12:21;20.30;92.80
3678;DHT22;1855;50.934;6.958;2023-07-31T12:14:48;20.30;93.40
3678;DHT22;1855;50.934;6.958;2023-07-31T12:17:17;20.30;92.90
3678;DHT22;1855;50.934;6.958;2023-07-31T12:19:45;20.20;93.20
3678;DHT22;1855;50.934;6.958;2023-07-31T12:22:12;20.20;92.90
3678;DHT22;1855;50.934;6.958;2023-07-31T12:24:39;20.20;93.50
3678;DHT22;1855;50.934;6.958;2023-07-31T12:27:10;20.20;93.50
3678;DHT22;1855;50.934;6.958;2023-07-31T12:29:39;20.20;93.90
3678;DHT22;1855;50.934;6.958;2023-07-31T12:32:21;20.20;93.70
3678;DHT22;1855;50.934;6.958;2023-07-31T12:34:49;20.30;93.40
3678;DHT22;1855;50.934;6.958;2023-07-31T12:37:16;20.40;93.40
3678;DHT22;1855;50.934;6.958;2023-07-31T12:39:43;20.40;93.00
3678;DHT22;1855;50.934;6.958;2023-07-31T12:42:10;20.40;93.20
3678;DHT22;1855;50.934;6.958;2023-07-31T12:44:38;20.30;93.10
3678;DHT22;1855;50.934;6.958;2023-07-31T12:47:05;20.40;93.40
3678;DHT22;1855;50.934;6.958;2023-07-31T12:49:32;20.40;93.20
3678;DHT22;1855;50.934;6.958;2023-07-31T12:51:59;20.50;92.90
3678;DHT22;1855;50.934;6.958;2023-07-31T12:54:25;20.50;92.70
3678;DHT22;1855;50.934;6.958;2023-07-31T12:56:52;20.50;92.60
3678;DHT22;1855;50.934;6.958;2023-07-31T12:59:19;20.40;93.20
3678;DHT22;1855;50.934;6.958;2023-07-31T13:01:47;20.40;92.70
3678;DHT22;1855;50.934;6.958;2023-07-31T13:04:14;20.40;92.90
3678;DHT22;1855;50.934;6.958;2023-07-31T13:06:40;20.40;92.80
3678;DHT22;1855;50.934;6.958;2023-07-31T13:09:07;20.40;92.50
3678;DHT22;1855;50.934;6.958;2023-07-31T13:11:34;20.40;92.40
3678;DHT22;1855;50.934;6.958;2023-07-31T13:14:01;20.50;92.50
3678;DHT22;1855;50.934;6.958;2023-07-31T13:16:28;20.50;92.60
3678;DHT22;1855;50.934;6.958;2023-07-31T13:18:56;20.60;92.30
3678;DHT22;1855;50.934;6.958;2023-07-31T13:21:22;20.60;91.90
3678;DHT22;1855;50.934;6.958;2023-07-31T13:23:49;20.60;92.20
3678;DHT22;1855;50.934;6.958;2023-07-31T13:26:16;20.60;92.20
3678;DHT22;1855;50.934;6.958;2023-07-31T13:28:43;20.60;91.80
3678;DHT22;1855;50.934;6.958;2023-07-31T13:31:09;20.70;91.60
3678;DHT22;1855;50.934;6.958;2023-07-31T13:33:37;20.70;92.10
3678;DHT22;1855;50.934;6.958;2023-07-31T13:36:05;20.80;91.50
3678;DHT22;1855;50.934;6.958;2023-07-31T13:38:32;21.00;91.20
3678;DHT22;1855;50.934;6.958;2023-07-31T13:40:58;21.00;90.40
3678;DHT22;1855;50.934;6.958;2023-07-31T13:43:25;21.10;89.40
3678;DHT22;1855;50.934;6.958;2023-07-31T13:45:52;21.10;90.10
3678;DHT22;1855;50.934;6.958;2023-07-31T13:48:18;21.20;89.40
3678;DHT22;1855;50.934;6.958;2023-07-31T13:50:45;21.20;90.00
3678;DHT22;1855;50.934;6.958;2023-07-31T13:53:13;21.30;90.60
3678;DHT22;1855;50.934;6.958;2023-07-31T13:55:39;21.40;90.30
3678;DHT22;1855;50.934;6.958;2023-07-31T13:58:06;21.50;90.10
3678;DHT22;1855;50.934;6.958;2023-07-31T14:00:32;21.60;88.60
3678;DHT22;1855;50.934;6.958;2023-07-31T14:03:00;21.90;86.50
3678;DHT22;1855;50.934;6.958;2023-07-31T14:05:27;22.40;82.80
3678;DHT22;1855;50.934;6.958;2023-07-31T14:07:54;23.10;80.30
3678;DHT22;1855;50.934;6.958;2023-07-31T14:10:22;23.60;76.30
3678;DHT22;1855;50.934;6.958;2023-07-31T14:12:49;23.60;74.90
3678;DHT22;1855;50.934;6.958;2023-07-31T14:15:15;23.40;77.20
3678;DHT22;1855;50.934;6.958;2023-07-31T14:17:42;23.20;76.60
3678;DHT22;1855;50.934;6.958;2023-07-31T14:20:10;23.00;77.90
3678;DHT22;1855;50.934;6.958;2023-07-31T14:22:38;22.80;77.40
3678;DHT22;1855;50.934;6.958;2023-07-31T14:25:05;22.70;79.60
3678;DHT22;1855;50.934;6.958;2023-07-31T14:27:33;22.40;80.00
3678;DHT22;1855;50.934;6.958;2023-07-31T14:30:00;22.10;80.70
3678;DHT22;1855;50.934;6.958;2023-07-31T14:32:27;22.00;80.50
3678;DHT22;1855;50.934;6.958;2023-07-31T14:34:53;21.90;81.70
3678;DHT22;1855;50.934;6.958;2023-07-31T14:37:20;21.70;82.30
3678;DHT22;1855;50.934;6.958;2023-07-31T14:39:47;21.50;83.20
3678;DHT22;1855;50.934;6.958;2023-07-31T14:42:15;21.40;83.60
3678;DHT22;1855;50.934;6.958;2023-07-31T14:44:45;21.20;85.70
3678;DHT22;1855;50.934;6.958;2023-07-31T14:47:12;21.10;85.40
3678;DHT22;1855;50.934;6.958;2023-07-31T14:49:39;21.00;86.20
3678;DHT22;1855;50.934;6.958;2023-07-31T14:52:06;21.00;86.20
3678;DHT22;1855;50.934;6.958;2023-07-31T14:54:33;21.10;85.70
3678;DHT22;1855;50.934;6.958;2023-07-31T14:57:00;21.10;85.40
3678;DHT22;1855;50.934;6.958;2023-07-31T14:59:26;21.10;85.80
3678;DHT22;1855;50.934;6.958;2023-07-31T15:01:54;21.00;86.00
3678;DHT22;1855;50.934;6.958;2023-07-31T15:04:21;21.00;85.30
3678;DHT22;1855;50.934;6.958;2023-07-31T15:06:50;21.00;85.80
3678;DHT22;1855;50.934;6.958;2023-07-31T15:09:16;20.90;85.10
3678;DHT22;1855;50.934;6.958;2023-07-31T15:11:43;20.90;85.70
3678;DHT22;1855;50.934;6.958;2023-07-31T15:14:10;20.90;85.60
3678;DHT22;1855;50.934;6.958;2023-07-31T15:16:37;20.90;86.20
3678;DHT22;1855;50.934;6.958;2023-07-31T15:19:05;20.90;88.10
3678;DHT22;1855;50.934;6.958;2023-07-31T15:21:32;20.90;86.70
3678;DHT22;1855;50.934;6.958;2023-07-31T15:23:59;20.90;86.20
3678;DHT22;1855;50.934;6.958;2023-07-31T15:26:25;21.00;85.00
3678;DHT22;1855;50.934;6.958;2023-07-31T15:29:00;21.00;85.40
3678;DHT22;1855;50.934;6.958;2023-07-31T15:31:27;20.90;84.50
3678;DHT22;1855;50.934;6.958;2023-07-31T15:33:54;20.90;85.10
3678;DHT22;1855;50.934;6.958;2023-07-31T15:36:22;20.80;85.70
3678;DHT22;1855;50.934;6.958;2023-07-31T15:38:49;20.80;85.70
3678;DHT22;1855;50.934;6.958;2023-07-31T15:41:16;20.70;85.60
3678;DHT22;1855;50.934;6.958;2023-07-31T15:43:43;20.70;85.80
3678;DHT22;1855;50.934;6.958;2023-07-31T15:46:09;20.60;86.20
3678;DHT22;1855;50.934;6.958;2023-07-31T15:48:36;20.50;86.30
3678;DHT22;1855;50.934;6.958;2023-07-31T15:51:03;20.50;86.20
3678;DHT22;1855;50.934;6.958;2023-07-31T15:53:31;20.50;86.70
3678;DHT22;1855;50.934;6.958;2023-07-31T15:55:58;20.50;87.50
3678;DHT22;1855;50.934;6.958;2023-07-31T15:58:24;20.40;90.10
3678;DHT22;1855;50.934;6.958;2023-07-31T16:00:51;20.30;91.00
3678;DHT22;1855;50.934;6.958;2023-07-31T16:03:19;20.10;91.50
3678;DHT22;1855;50.934;6.958;2023-07-31T16:05:46;19.90;92.10